Time;durP1;ratioP1;P1;durP2;ratioP2;P2;SDS_P1;SDS_P2;PMS_P1;PMS_P2;Temp;Humidity;BMP_temperature;BMP_pressure;BME280_temperature;BME280_humidity;BME280_pressure;Samples;Min_cycle;Max_cycle;Signal;HPM_P1;HPM_P2
2022/03/21 00:01:25;;;;;;;;;;;3.20;99.90;;;;;;5074209;28;19932;-58
2022/03/21 00:03:50;;;;;;;;;;;3.30;99.90;;;;;;5065365;28;19935;-58
2022/03/21 00:06:16;;;;;;;;;;;3.40;99.90;;;;;;5073800;28;19935;-58
2022/03/21 00:08:43;;;;;;;;;;;3.40;99.90;;;;;;5073121;28;19927;-58
2022/03/21 00:11:08;;;;;;;;;;;3.30;99.90;;;;;;5071616;28;19934;-58
2022/03/21 00:13:35;;;;;;;;;;;3.40;99.90;;;;;;5071593;28;19928;-59
2022/03/21 00:16:01;;;;;;;;;;;3.40;99.90;;;;;;5073380;28;20226;-58
2022/03/21 00:18:27;;;;;;;;;;;3.60;99.90;;;;;;5055031;28;19925;-58
2022/03/21 00:20:54;;;;;;;;;;;3.60;99.90;;;;;;5053175;28;20329;-59
2022/03/21 00:23:19;;;;;;;;;;;3.50;99.90;;;;;;5072213;28;20305;-58
2022/03/21 00:25:45;;;;;;;;;;;3.60;99.90;;;;;;5072666;28;19932;-59
2022/03/21 00:28:11;;;;;;;;;;;3.50;99.90;;;;;;5071533;28;19946;-58
2022/03/21 00:30:37;;;;;;;;;;;3.60;99.90;;;;;;5071701;28;19932;-59
2022/03/21 00:33:05;;;;;;;;;;;3.50;99.90;;;;;;5070632;28;19928;-58
2022/03/21 00:35:32;;;;;;;;;;;3.50;99.90;;;;;;5072961;28;19935;-59
2022/03/21 00:37:58;;;;;;;;;;;3.50;99.90;;;;;;5072735;28;19928;-58
2022/03/21 00:40:24;;;;;;;;;;;3.60;99.90;;;;;;5073387;28;20981;-58
2022/03/21 00:42:50;;;;;;;;;;;3.50;99.90;;;;;;5071391;28;19942;-59
2022/03/21 00:45:17;;;;;;;;;;;3.40;99.90;;;;;;5072165;28;20503;-58
2022/03/21 00:47:44;;;;;;;;;;;3.40;99.90;;;;;;5072778;28;19928;-58
2022/03/21 00:50:12;;;;;;;;;;;3.40;99.90;;;;;;5072259;28;19982;-59
2022/03/21 00:52:41;;;;;;;;;;;3.40;99.90;;;;;;5071756;28;20388;-58
2022/03/21 00:55:09;;;;;;;;;;;3.50;99.90;;;;;;5071804;28;19935;-58
2022/03/21 00:57:35;;;;;;;;;;;3.50;99.90;;;;;;5071723;28;20376;-58
2022/03/21 01:00:00;;;;;;;;;;;3.40;99.90;;;;;;5071091;28;19928;-58
2022/03/21 01:02:26;;;;;;;;;;;3.30;99.90;;;;;;5071396;28;20016;-58
2022/03/21 01:04:52;;;;;;;;;;;3.20;99.90;;;;;;5073421;28;19974;-58
2022/03/21 01:07:17;;;;;;;;;;;3.00;99.90;;;;;;5073424;28;19935;-58
2022/03/21 01:09:43;;;;;;;;;;;2.80;99.90;;;;;;5073574;28;19935;-58
2022/03/21 01:12:09;;;;;;;;;;;2.90;99.90;;;;;;5072783;28;20143;-58
2022/03/21 01:14:34;;;;;;;;;;;2.90;99.90;;;;;;5074006;28;20495;-58
2022/03/21 01:17:00;;;;;;;;;;;2.60;99.90;;;;;;5073064;28;19935;-58
2022/03/21 01:19:30;;;;;;;;;;;2.60;99.90;;;;;;5073417;28;19950;-58
2022/03/21 01:21:56;;;;;;;;;;;2.60;99.90;;;;;;5072575;28;19928;-59
2022/03/21 01:24:23;;;;;;;;;;;2.70;99.90;;;;;;5072388;28;20011;-58
2022/03/21 01:26:49;;;;;;;;;;;2.60;99.90;;;;;;5073547;28;20262;-58
2022/03/21 01:29:15;;;;;;;;;;;2.50;99.90;;;;;;5072923;28;20017;-57
2022/03/21 01:31:42;;;;;;;;;;;2.70;99.90;;;;;;5073531;28;19955;-58
2022/03/21 01:34:08;;;;;;;;;;;2.60;99.90;;;;;;5072521;28;19940;-58
2022/03/21 01:36:34;;;;;;;;;;;2.50;99.90;;;;;;5072364;28;19928;-60
2022/03/21 01:39:01;;;;;;;;;;;2.60;99.90;;;;;;5072276;28;19928;-58
2022/03/21 01:41:27;;;;;;;;;;;2.80;99.90;;;;;;5069926;28;19931;-58
2022/03/21 01:43:55;;;;;;;;;;;2.60;99.90;;;;;;5070730;28;19935;-58
2022/03/21 01:46:20;;;;;;;;;;;3.10;99.90;;;;;;5070528;28;19928;-59
2022/03/21 01:48:46;;;;;;;;;;;2.70;99.90;;;;;;5071919;28;20312;-58
2022/03/21 01:51:11;;;;;;;;;;;2.90;99.90;;;;;;5074015;28;20391;-58
2022/03/21 01:56:23;;;;;;;;;;;2.70;99.90;;;;;;5076211;28;20104;-59
2022/03/21 01:58:48;;;;;;;;;;;2.80;99.90;;;;;;5075800;28;19928;-58
2022/03/21 02:01:14;;;;;;;;;;;2.60;99.90;;;;;;5075210;28;19973;-59
2022/03/21 02:03:39;;;;;;;;;;;2.60;99.90;;;;;;5073476;28;19928;-59
2022/03/21 02:06:05;;;;;;;;;;;2.70;99.90;;;;;;5057809;28;20415;-58
2022/03/21 02:08:31;;;;;;;;;;;2.50;99.90;;;;;;5076522;28;20591;-59
2022/03/21 02:10:56;;;;;;;;;;;2.40;99.90;;;;;;5074223;28;19928;-59
2022/03/21 02:13:23;;;;;;;;;;;2.60;99.90;;;;;;5074391;28;19957;-59
2022/03/21 02:15:48;;;;;;;;;;;3.80;99.90;;;;;;5075252;28;19928;-58
2022/03/21 02:18:16;;;;;;;;;;;2.40;99.90;;;;;;5075157;28;19928;-59
2022/03/21 02:20:42;;;;;;;;;;;2.40;99.90;;;;;;5074543;28;19928;-59
2022/03/21 02:23:16;;;;;;;;;;;2.40;99.90;;;;;;5074694;28;20391;-58
2022/03/21 02:25:43;;;;;;;;;;;2.20;99.90;;;;;;5075265;28;19935;-57
2022/03/21 02:28:11;;;;;;;;;;;2.20;99.90;;;;;;5074800;28;19928;-58
2022/03/21 02:30:38;;;;;;;;;;;4.20;99.90;;;;;;5074492;28;19939;-58
2022/03/21 02:33:04;;;;;;;;;;;2.00;99.90;;;;;;5073507;28;20417;-63
2022/03/21 02:35:33;;;;;;;;;;;2.00;99.90;;;;;;5075886;28;20917;-59
2022/03/21 02:37:59;;;;;;;;;;;1.80;99.90;;;;;;5073895;28;20480;-59
2022/03/21 02:40:25;;;;;;;;;;;1.80;99.90;;;;;;5075711;28;19935;-58
2022/03/21 02:42:51;;;;;;;;;;;1.70;99.90;;;;;;5074499;28;20346;-59
2022/03/21 02:45:17;;;;;;;;;;;1.90;99.90;;;;;;5074561;28;20388;-58
2022/03/21 02:47:42;;;;;;;;;;;1.70;99.90;;;;;;5077154;28;19928;-58
2022/03/21 02:50:10;;;;;;;;;;;1.50;99.90;;;;;;5075047;28;19928;-59
2022/03/21 02:52:36;;;;;;;;;;;1.50;99.90;;;;;;5075910;28;19928;-58
2022/03/21 02:55:02;;;;;;;;;;;3.00;99.90;;;;;;5074666;28;19931;-59
2022/03/21 02:57:31;;;;;;;;;;;1.40;99.90;;;;;;5074905;28;20027;-58
2022/03/21 02:59:57;;;;;;;;;;;1.30;99.90;;;;;;5073706;28;19928;-58
2022/03/21 03:02:22;;;;;;;;;;;1.40;99.90;;;;;;5074264;28;19985;-58
2022/03/21 03:04:48;;;;;;;;;;;1.50;99.90;;;;;;5073453;28;19963;-59
2022/03/21 03:07:15;;;;;;;;;;;1.40;99.90;;;;;;5074213;28;20171;-58
2022/03/21 03:09:41;;;;;;;;;;;1.50;99.90;;;;;;5072442;28;19981;-59
2022/03/21 03:12:08;;;;;;;;;;;1.50;99.90;;;;;;5073698;28;20384;-59
2022/03/21 03:14:34;;;;;;;;;;;1.40;99.90;;;;;;5074161;28;20017;-59
2022/03/21 03:17:01;;;;;;;;;;;;;;;;;;5073121;28;20026;-58
2022/03/21 03:19:27;;;;;;;;;;;1.50;99.90;;;;;;5074592;28;20606;-59
2022/03/21 03:21:54;;;;;;;;;;;1.60;99.90;;;;;;5073495;28;20422;-58
2022/03/21 03:24:23;;;;;;;;;;;1.60;99.90;;;;;;5073859;28;20013;-58
2022/03/21 03:26:48;;;;;;;;;;;1.80;99.90;;;;;;5074968;28;19924;-58
2022/03/21 03:29:16;;;;;;;;;;;1.40;99.90;;;;;;5073478;28;19981;-58
2022/03/21 03:31:41;;;;;;;;;;;1.90;99.90;;;;;;5073255;28;20023;-58
2022/03/21 03:34:07;;;;;;;;;;;1.70;99.90;;;;;;5074333;28;20542;-59
2022/03/21 03:36:34;;;;;;;;;;;1.90;99.90;;;;;;5074783;28;19928;-59
2022/03/21 03:39:00;;;;;;;;;;;1.90;99.90;;;;;;5073077;28;19928;-59
2022/03/21 03:41:27;;;;;;;;;;;1.70;99.90;;;;;;5073538;28;19934;-59
2022/03/21 03:43:52;;;;;;;;;;;1.90;99.90;;;;;;5073330;28;20200;-59
2022/03/21 03:46:18;;;;;;;;;;;1.80;99.90;;;;;;5073855;28;20941;-59
2022/03/21 03:48:44;;;;;;;;;;;1.80;99.90;;;;;;5073236;28;20104;-59
2022/03/21 03:51:10;;;;;;;;;;;1.80;99.90;;;;;;5072780;28;19928;-58
2022/03/21 03:53:36;;;;;;;;;;;2.00;99.90;;;;;;5072226;28;19928;-59
2022/03/21 03:56:02;;;;;;;;;;;1.90;99.90;;;;;;5073186;28;19928;-59
2022/03/21 03:58:28;;;;;;;;;;;1.70;99.90;;;;;;5073059;28;20277;-59
2022/03/21 04:00:54;;;;;;;;;;;1.80;99.90;;;;;;5072848;28;20179;-59
2022/03/21 04:06:07;;;;;;;;;;;1.80;99.90;;;;;;5073240;28;20818;-59
2022/03/21 04:08:34;;;;;;;;;;;1.70;99.90;;;;;;5073756;28;19927;-59
2022/03/21 04:10:59;;;;;;;;;;;1.70;99.90;;;;;;5072636;28;19978;-59
2022/03/21 04:13:25;;;;;;;;;;;1.60;99.90;;;;;;5073239;28;20018;-59
2022/03/21 04:15:52;;;;;;;;;;;1.40;99.90;;;;;;5074928;28;20034;-59
2022/03/21 04:18:19;;;;;;;;;;;1.40;99.90;;;;;;5074404;28;20144;-59
2022/03/21 04:20:45;;;;;;;;;;;1.40;99.90;;;;;;5073042;28;20039;-58
2022/03/21 04:23:12;;;;;;;;;;;1.20;99.90;;;;;;5074268;28;19950;-59
2022/03/21 04:25:38;;;;;;;;;;;1.30;99.90;;;;;;5073703;28;19928;-59
2022/03/21 04:28:07;;;;;;;;;;;1.20;99.90;;;;;;5073906;28;20634;-59
2022/03/21 04:30:35;;;;;;;;;;;1.20;99.90;;;;;;5072556;28;19939;-59
2022/03/21 04:33:00;;;;;;;;;;;0.90;99.90;;;;;;5070032;28;19970;-59
2022/03/21 04:35:26;;;;;;;;;;;0.90;99.90;;;;;;5072819;28;20395;-59
2022/03/21 04:37:53;;;;;;;;;;;;;;;;;;5073018;28;20451;-59
2022/03/21 04:40:18;;;;;;;;;;;0.90;99.90;;;;;;5073235;28;19928;-59
2022/03/21 04:42:44;;;;;;;;;;;0.90;99.90;;;;;;5072490;28;19928;-59
2022/03/21 04:45:09;;;;;;;;;;;0.70;99.90;;;;;;5071942;28;19927;-58
2022/03/21 04:47:35;;;;;;;;;;;0.80;99.90;;;;;;5072026;28;19928;-59
2022/03/21 04:50:01;;;;;;;;;;;1.00;99.90;;;;;;5086340;28;19990;-59
2022/03/21 04:52:26;;;;;;;;;;;1.00;99.90;;;;;;5070543;28;19928;-59
2022/03/21 04:54:52;;;;;;;;;;;0.80;99.90;;;;;;5071682;28;20226;-58
2022/03/21 04:57:22;;;;;;;;;;;0.70;99.90;;;;;;5072332;28;19935;-59
2022/03/21 04:59:48;;;;;;;;;;;0.60;99.90;;;;;;5072255;28;20415;-58
2022/03/21 05:02:13;;;;;;;;;;;0.60;99.90;;;;;;5071718;28;19928;-59
2022/03/21 05:04:41;;;;;;;;;;;0.70;99.90;;;;;;5070297;28;19928;-57
2022/03/21 05:07:06;;;;;;;;;;;0.50;99.90;;;;;;5072551;28;19971;-59
2022/03/21 05:09:32;;;;;;;;;;;0.60;99.90;;;;;;5073567;28;20338;-58
2022/03/21 05:11:59;;;;;;;;;;;0.30;99.90;;;;;;5072716;28;19928;-59
2022/03/21 05:14:25;;;;;;;;;;;0.50;99.90;;;;;;5071274;28;20448;-58
2022/03/21 05:16:50;;;;;;;;;;;0.40;99.90;;;;;;5072947;28;19971;-59
2022/03/21 05:19:16;;;;;;;;;;;0.30;99.90;;;;;;5072842;28;19974;-58
2022/03/21 05:21:42;;;;;;;;;;;0.40;99.90;;;;;;5072443;28;19977;-59
2022/03/21 05:32:23;;;;;;;;;;;0.20;99.90;;;;;;5078535;28;20367;-58
2022/03/21 05:37:35;;;;;;;;;;;0.70;99.90;;;;;;5078074;28;20030;-59
2022/03/21 05:42:45;;;;;;;;;;;;;;;;;;5076267;28;19928;-58
2022/03/21 05:45:13;;;;;;;;;;;;;;;;;;5074882;28;19932;-58
2022/03/21 05:48:50;;;;;;;;;;;;;;;;;;5075158;28;19928;-58
2022/03/21 05:50:24;;;;;;;;;;;0.00;99.90;;;;;;5075376;28;19932;-58
2022/03/21 05:52:51;;;;;;;;;;;;;;;;;;5074574;28;19932;-57
2022/03/21 05:55:17;;;;;;;;;;;;;;;;;;5075642;28;20046;-58
2022/03/21 05:57:43;;;;;;;;;;;;;;;;;;5074686;28;19928;-58
2022/03/21 06:00:21;;;;;;;;;;;;;;;;;;5074300;28;19934;-58
2022/03/21 06:02:47;;;;;;;;;;;;;;;;;;5075377;28;20022;-58
2022/03/21 06:05:13;;;;;;;;;;;;;;;;;;5074197;28;19928;-58
2022/03/21 06:07:39;;;;;;;;;;;;;;;;;;5075705;28;20560;-58
2022/03/21 06:10:05;;;;;;;;;;;0.40;99.90;;;;;;5074243;28;20050;-58
2022/03/21 06:12:30;;;;;;;;;;;0.50;99.90;;;;;;5075069;28;20397;-59
2022/03/21 06:14:56;;;;;;;;;;;0.70;99.90;;;;;;5074608;28;19928;-58
2022/03/21 06:17:24;;;;;;;;;;;0.90;99.90;;;;;;5074895;28;20379;-58
2022/03/21 06:19:49;;;;;;;;;;;0.90;99.90;;;;;;5074602;28;19936;-58
2022/03/21 06:22:15;;;;;;;;;;;1.20;99.90;;;;;;5074113;28;20460;-58
2022/03/21 06:24:40;;;;;;;;;;;1.50;99.90;;;;;;5074260;28;19928;-58
2022/03/21 06:27:06;;;;;;;;;;;1.60;99.90;;;;;;5074069;28;19924;-57
2022/03/21 06:29:32;;;;;;;;;;;1.90;99.90;;;;;;5075065;28;19935;-58
2022/03/21 06:31:59;;;;;;;;;;;2.40;99.90;;;;;;5073629;28;20408;-57
2022/03/21 06:34:25;;;;;;;;;;;2.50;99.90;;;;;;5087648;28;19941;-57
2022/03/21 06:36:52;;;;;;;;;;;3.20;99.90;;;;;;5075919;28;19950;-57
2022/03/21 06:39:20;;;;;;;;;;;3.50;99.90;;;;;;5074647;28;20056;-59
2022/03/21 06:41:46;;;;;;;;;;;4.20;99.90;;;;;;5074723;28;19968;-57
2022/03/21 06:44:14;;;;;;;;;;;4.90;99.90;;;;;;5056401;28;20532;-58
2022/03/21 06:46:39;;;;;;;;;;;5.30;99.90;;;;;;5074462;28;19928;-56
2022/03/21 06:49:05;;;;;;;;;;;6.00;99.90;;;;;;5074665;28;20269;-56
2022/03/21 06:51:31;;;;;;;;;;;6.30;99.90;;;;;;5089697;28;19937;-58
2022/03/21 06:53:56;;;;;;;;;;;7.20;99.90;;;;;;5073799;28;19977;-57
2022/03/21 06:56:22;;;;;;;;;;;7.00;99.90;;;;;;5074791;28;19935;-57
2022/03/21 06:58:47;;;;;;;;;;;8.40;99.90;;;;;;5075196;28;20363;-57
2022/03/21 07:01:13;;;;;;;;;;;7.60;99.90;;;;;;5073440;28;19928;-57
2022/03/21 07:03:40;;;;;;;;;;;8.00;99.90;;;;;;5073652;28;19954;-57
2022/03/21 07:06:06;;;;;;;;;;;8.10;99.90;;;;;;5054184;28;19928;-57
2022/03/21 07:08:32;;;;;;;;;;;8.00;99.90;;;;;;5054177;28;19928;-57
2022/03/21 07:10:57;;;;;;;;;;;8.00;99.90;;;;;;5053770;28;19972;-57
2022/03/21 07:13:27;;;;;;;;;;;7.90;99.90;;;;;;5053075;28;20864;-57
2022/03/21 07:15:53;;;;;;;;;;;8.30;99.90;;;;;;5053424;28;19943;-57
2022/03/21 07:18:18;;;;;;;;;;;8.40;99.90;;;;;;5052763;28;19932;-57
2022/03/21 07:20:44;;;;;;;;;;;8.50;99.90;;;;;;5053387;28;20023;-57
2022/03/21 07:23:10;;;;;;;;;;;9.10;99.90;;;;;;5052333;28;19928;-57
2022/03/21 07:25:35;;;;;;;;;;;9.30;99.90;;;;;;5053088;28;19928;-57
2022/03/21 07:28:01;;;;;;;;;;;10.30;99.90;;;;;;5053193;28;20015;-58
2022/03/21 07:30:27;;;;;;;;;;;10.00;99.90;;;;;;5053987;28;20037;-57
2022/03/21 07:32:52;;;;;;;;;;;10.20;99.90;;;;;;5052536;28;19928;-57
2022/03/21 07:35:18;;;;;;;;;;;10.60;99.90;;;;;;5052359;28;19932;-57
2022/03/21 07:37:46;;;;;;;;;;;10.80;99.90;;;;;;5055723;28;20266;-57
2022/03/21 07:40:12;;;;;;;;;;;12.80;99.90;;;;;;5053022;28;20388;-57
2022/03/21 07:42:41;;;;;;;;;;;10.90;99.90;;;;;;5034253;28;19928;-57
2022/03/21 07:47:51;;;;;;;;;;;10.60;99.90;;;;;;5051512;28;20789;-57
2022/03/21 07:50:19;;;;;;;;;;;10.90;99.90;;;;;;5069829;28;19933;-57
2022/03/21 07:52:45;;;;;;;;;;;10.40;99.90;;;;;;5052940;28;19928;-57
2022/03/21 07:55:12;;;;;;;;;;;10.70;99.90;;;;;;5052517;28;19928;-57
2022/03/21 07:57:38;;;;;;;;;;;11.10;99.90;;;;;;5053101;28;19992;-58
2022/03/21 08:00:05;;;;;;;;;;;10.90;99.90;;;;;;5053561;28;20204;-58
2022/03/21 08:02:33;;;;;;;;;;;11.90;99.90;;;;;;5052337;28;19928;-57
2022/03/21 08:05:01;;;;;;;;;;;12.40;99.90;;;;;;5061389;28;19928;-57
2022/03/21 08:07:27;;;;;;;;;;;13.00;99.90;;;;;;5073569;28;20465;-57
2022/03/21 08:09:52;;;;;;;;;;;13.20;99.90;;;;;;5073642;28;20207;-58
2022/03/21 08:12:18;;;;;;;;;;;13.70;99.90;;;;;;5072225;28;19928;-57
2022/03/21 08:14:43;;;;;;;;;;;14.20;99.90;;;;;;5072692;28;19938;-57
2022/03/21 08:17:11;;;;;;;;;;;16.30;99.90;;;;;;5071717;28;19928;-57
2022/03/21 08:19:37;;;;;;;;;;;14.00;99.90;;;;;;5072961;28;20047;-57
2022/03/21 08:22:04;;;;;;;;;;;16.50;99.90;;;;;;5071203;28;20392;-57
2022/03/21 08:24:35;;;;;;;;;;;14.00;99.90;;;;;;5071857;28;19951;-57
2022/03/21 08:27:01;;;;;;;;;;;13.70;99.90;;;;;;5072120;28;20407;-57
2022/03/21 08:29:26;;;;;;;;;;;13.50;99.90;;;;;;5073164;28;19928;-57
2022/03/21 08:31:52;;;;;;;;;;;13.40;99.90;;;;;;5072565;28;20077;-57
2022/03/21 08:34:17;;;;;;;;;;;12.80;99.90;;;;;;5085757;28;20330;-57
2022/03/21 08:36:43;;;;;;;;;;;14.60;99.90;;;;;;5073054;28;19928;-57
2022/03/21 08:39:11;;;;;;;;;;;12.20;99.90;;;;;;5050436;28;19932;-58
2022/03/21 08:41:37;;;;;;;;;;;12.50;99.90;;;;;;5071143;28;19928;-58
2022/03/21 08:44:03;;;;;;;;;;;13.70;99.90;;;;;;5073206;28;19928;-59
2022/03/21 08:46:30;;;;;;;;;;;13.00;99.90;;;;;;5070892;28;19928;-58
2022/03/21 08:51:40;;;;;;;;;;;12.40;99.90;;;;;;5071901;28;20469;-58
2022/03/21 08:54:07;;;;;;;;;;;12.40;99.90;;;;;;5072094;28;19928;-56
2022/03/21 08:56:33;;;;;;;;;;;12.00;99.90;;;;;;5072401;28;19928;-57
2022/03/21 08:58:59;;;;;;;;;;;12.30;99.90;;;;;;5071724;28;19963;-56
2022/03/21 09:01:24;;;;;;;;;;;12.60;99.90;;;;;;5074524;28;19975;-56
2022/03/21 09:03:51;;;;;;;;;;;12.90;99.90;;;;;;5072498;28;19934;-56
2022/03/21 09:06:17;;;;;;;;;;;13.70;99.90;;;;;;5073238;28;20392;-56
2022/03/21 09:08:43;;;;;;;;;;;13.50;99.90;;;;;;5073105;28;19928;-58
2022/03/21 09:11:09;;;;;;;;;;;13.40;99.90;;;;;;5071529;28;20465;-56
2022/03/21 09:13:36;;;;;;;;;;;13.80;99.90;;;;;;5073584;28;20416;-56
2022/03/21 09:16:02;;;;;;;;;;;16.20;99.90;;;;;;5070347;28;19928;-56
2022/03/21 09:18:29;;;;;;;;;;;14.40;99.90;;;;;;5071553;28;19939;-57
2022/03/21 09:20:56;;;;;;;;;;;14.60;99.90;;;;;;5072335;28;19928;-57
2022/03/21 09:23:22;;;;;;;;;;;15.50;99.90;;;;;;5072177;28;19923;-58
2022/03/21 09:25:47;;;;;;;;;;;16.50;99.90;;;;;;5072909;28;19974;-56
2022/03/21 09:28:13;;;;;;;;;;;15.80;99.90;;;;;;5071154;28;19951;-57
2022/03/21 09:30:39;;;;;;;;;;;15.60;99.90;;;;;;5053610;28;19924;-56
2022/03/21 09:33:05;;;;;;;;;;;17.20;99.90;;;;;;5071189;28;19935;-56
2022/03/21 09:35:30;;;;;;;;;;;16.50;99.90;;;;;;5073330;28;20405;-57
2022/03/21 09:37:56;;;;;;;;;;;15.40;99.90;;;;;;5072048;28;19974;-57
2022/03/21 09:40:22;;;;;;;;;;;15.60;99.90;;;;;;5053360;28;20017;-57
2022/03/21 09:42:48;;;;;;;;;;;15.60;99.90;;;;;;5054915;28;19943;-57
2022/03/21 09:45:14;;;;;;;;;;;15.80;99.90;;;;;;5071368;28;19928;-57
2022/03/21 09:50:31;;;;;;;;;;;15.80;99.90;;;;;;5071198;28;19931;-56
2022/03/21 09:52:58;;;;;;;;;;;16.10;99.90;;;;;;5070607;28;19928;-57
2022/03/21 09:55:23;;;;;;;;;;;17.00;99.90;;;;;;5072734;28;20396;-57
2022/03/21 09:57:49;;;;;;;;;;;15.90;99.90;;;;;;5071883;28;19935;-57
2022/03/21 10:00:17;;;;;;;;;;;15.60;99.90;;;;;;5071310;28;20026;-57
2022/03/21 10:02:42;;;;;;;;;;;15.20;99.90;;;;;;5070850;28;19928;-56
2022/03/21 10:05:28;;;;;;;;;;;16.50;99.90;;;;;;5072374;28;20041;-56
2022/03/21 10:08:01;;;;;;;;;;;16.70;99.90;;;;;;5071124;28;19932;-56
2022/03/21 10:10:27;;;;;;;;;;;14.70;99.90;;;;;;5072842;28;20129;-56
2022/03/21 10:12:52;;;;;;;;;;;14.20;99.90;;;;;;5076761;28;20295;-57
2022/03/21 10:15:24;;;;;;;;;;;15.30;99.90;;;;;;5074834;28;20018;-58
2022/03/21 10:18:03;;;;;;;;;;;14.30;99.90;;;;;;5075406;28;20015;-57
2022/03/21 10:20:33;;;;;;;;;;;15.70;99.90;;;;;;5075271;28;19935;-56
2022/03/21 10:23:13;;;;;;;;;;;14.10;99.90;;;;;;5074278;28;19967;-57
2022/03/21 10:25:39;;;;;;;;;;;14.20;99.90;;;;;;5075731;28;19928;-56
2022/03/21 10:28:06;;;;;;;;;;;15.20;99.90;;;;;;5074291;28;19935;-57
2022/03/21 10:30:32;;;;;;;;;;;14.40;99.90;;;;;;5073821;28;19928;-57
2022/03/21 10:32:58;;;;;;;;;;;14.20;99.90;;;;;;5073344;28;19939;-58
2022/03/21 10:35:26;;;;;;;;;;;14.30;99.90;;;;;;5073832;28;19932;-57
2022/03/21 10:37:58;;;;;;;;;;;16.60;99.90;;;;;;5057857;28;19932;-56
2022/03/21 10:40:23;;;;;;;;;;;14.40;99.90;;;;;;5074558;28;20022;-57
2022/03/21 10:42:59;;;;;;;;;;;14.40;99.90;;;;;;5074504;28;19934;-56
2022/03/21 10:45:42;;;;;;;;;;;14.50;99.90;;;;;;5090275;28;20683;-57
2022/03/21 10:48:10;;;;;;;;;;;14.60;99.90;;;;;;5073680;28;19978;-56
2022/03/21 10:50:40;;;;;;;;;;;14.60;99.90;;;;;;5074105;28;20488;-57
2022/03/21 10:53:11;;;;;;;;;;;14.70;99.90;;;;;;5073741;28;19928;-57
2022/03/21 10:55:37;;;;;;;;;;;14.80;99.90;;;;;;5089450;28;20684;-56
2022/03/21 10:58:03;;;;;;;;;;;15.30;99.90;;;;;;5073178;28;20041;-57
2022/03/21 11:00:31;;;;;;;;;;;14.90;99.90;;;;;;5074102;28;19935;-56
2022/03/21 11:03:05;;;;;;;;;;;15.10;99.90;;;;;;5074733;28;19935;-56
2022/03/21 11:05:33;;;;;;;;;;;15.10;99.90;;;;;;5074609;28;19928;-56
2022/03/21 11:07:59;;;;;;;;;;;14.80;99.90;;;;;;5074411;28;19939;-57
2022/03/21 11:10:25;;;;;;;;;;;16.10;99.90;;;;;;5073907;28;19931;-57
2022/03/21 11:12:51;;;;;;;;;;;17.30;99.90;;;;;;5074530;28;21153;-57
2022/03/21 11:15:17;;;;;;;;;;;15.20;99.90;;;;;;5075374;28;19935;-56
2022/03/21 11:17:43;;;;;;;;;;;15.40;99.90;;;;;;5055871;28;19928;-57
2022/03/21 11:20:09;;;;;;;;;;;15.50;99.90;;;;;;5073044;28;19959;-55
2022/03/21 11:22:36;;;;;;;;;;;15.50;99.90;;;;;;5074990;28;20369;-56
2022/03/21 11:25:02;;;;;;;;;;;15.20;99.90;;;;;;5073477;28;19958;-56
2022/03/21 11:27:41;;;;;;;;;;;15.50;99.90;;;;;;5074359;28;19932;-57
2022/03/21 11:30:25;;;;;;;;;;;15.30;99.90;;;;;;5074353;28;19928;-57
2022/03/21 11:32:57;;;;;;;;;;;15.60;99.90;;;;;;5073474;28;19927;-56
2022/03/21 11:35:28;;;;;;;;;;;17.40;99.90;;;;;;5072831;28;19939;-56
2022/03/21 11:37:55;;;;;;;;;;;15.50;99.90;;;;;;5055586;28;19981;-56
2022/03/21 11:40:34;;;;;;;;;;;15.90;99.90;;;;;;5072383;28;20689;-55
2022/03/21 11:43:16;;;;;;;;;;;15.50;99.90;;;;;;5072958;28;19938;-56
2022/03/21 11:45:42;;;;;;;;;;;15.60;99.90;;;;;;5072740;28;19932;-57
2022/03/21 11:48:17;;;;;;;;;;;17.50;99.90;;;;;;5072161;28;19928;-57
2022/03/21 11:50:43;;;;;;;;;;;15.30;99.90;;;;;;5053681;28;20393;-57
2022/03/21 11:53:09;;;;;;;;;;;17.50;99.90;;;;;;5072785;28;19935;-57
2022/03/21 11:55:37;;;;;;;;;;;16.00;99.90;;;;;;5072653;28;20127;-56
2022/03/21 11:58:21;;;;;;;;;;;15.50;99.90;;;;;;5072375;28;19928;-57
2022/03/21 12:01:05;;;;;;;;;;;15.60;99.90;;;;;;5073246;28;20367;-58
2022/03/21 12:03:33;;;;;;;;;;;15.50;99.90;;;;;;5072412;28;20402;-57
2022/03/21 12:06:18;;;;;;;;;;;15.60;99.90;;;;;;5072668;28;20351;-57
2022/03/21 12:08:45;;;;;;;;;;;15.70;99.90;;;;;;5072940;28;19928;-56
2022/03/21 12:11:30;;;;;;;;;;;15.60;99.90;;;;;;5072702;28;20373;-57
2022/03/21 12:14:14;;;;;;;;;;;14.50;99.90;;;;;;5073517;28;19928;-58
2022/03/21 12:16:40;;;;;;;;;;;15.20;99.10;;;;;;5072589;28;19954;-58
2022/03/21 12:19:06;;;;;;;;;;;15.30;99.90;;;;;;5072448;28;19935;-57
2022/03/21 12:21:31;;;;;;;;;;;15.40;99.90;;;;;;5072741;28;20439;-57
2022/03/21 12:24:14;;;;;;;;;;;15.30;99.90;;;;;;5090506;28;19939;-57
2022/03/21 12:26:50;;;;;;;;;;;15.40;99.90;;;;;;5074249;28;19934;-57
2022/03/21 12:29:31;;;;;;;;;;;15.30;98.50;;;;;;5073930;28;19928;-58
2022/03/21 12:32:16;;;;;;;;;;;15.30;99.90;;;;;;5039919;28;20651;-57
2022/03/21 12:34:44;;;;;;;;;;;15.30;98.40;;;;;;5073745;28;19935;-58
2022/03/21 12:37:40;;;;;;;;;;;15.20;99.90;;;;;;5073590;28;20395;-57
2022/03/21 12:40:08;;;;;;;;;;;14.90;98.80;;;;;;5074837;28;19928;-58
2022/03/21 12:42:35;;;;;;;;;;;15.20;99.90;;;;;;5073803;28;19979;-58
2022/03/21 12:45:01;;;;;;;;;;;15.20;98.30;;;;;;5071723;28;19928;-58
2022/03/21 12:47:27;;;;;;;;;;;15.10;98.60;;;;;;5073622;28;20204;-58
2022/03/21 12:49:53;;;;;;;;;;;15.00;98.60;;;;;;5074161;28;19928;-57
2022/03/21 12:52:29;;;;;;;;;;;15.20;99.90;;;;;;5071513;28;20151;-58
2022/03/21 12:54:57;;;;;;;;;;;15.20;98.30;;;;;;5054241;28;19928;-58
2022/03/21 12:57:22;;;;;;;;;;;15.00;99.10;;;;;;5070950;28;20345;-58
2022/03/21 12:59:48;;;;;;;;;;;15.80;99.90;;;;;;5070803;28;19927;-57
2022/03/21 13:02:26;;;;;;;;;;;15.10;99.50;;;;;;5071406;28;20014;-58
2022/03/21 13:10:33;;;;;;;;;;;17.00;98.70;;;;;;5071773;28;19938;-58
2022/03/21 13:13:00;;;;;;;;;;;15.10;99.00;;;;;;5070631;28;19928;-58
2022/03/21 13:15:27;;;;;;;;;;;15.10;98.60;;;;;;5069339;28;19928;-58
2022/03/21 13:17:57;;;;;;;;;;;15.60;99.10;;;;;;5073023;28;19924;-59
2022/03/21 13:20:26;;;;;;;;;;;14.90;98.30;;;;;;5072290;28;19932;-58
2022/03/21 13:22:51;;;;;;;;;;;16.70;98.30;;;;;;5071776;28;19928;-59
2022/03/21 13:25:21;;;;;;;;;;;14.70;99.20;;;;;;5071374;28;20066;-59
2022/03/21 13:27:46;;;;;;;;;;;14.90;97.60;;;;;;5071846;28;20475;-59
2022/03/21 13:30:12;;;;;;;;;;;15.00;99.80;;;;;;5070244;28;20027;-58
2022/03/21 13:32:41;;;;;;;;;;;15.10;99.00;;;;;;5070378;28;20246;-58
2022/03/21 13:35:08;;;;;;;;;;;15.00;98.20;;;;;;5072278;28;19954;-59
2022/03/21 13:37:34;;;;;;;;;;;15.00;98.90;;;;;;5071950;28;19950;-59
2022/03/21 13:40:01;;;;;;;;;;;16.80;99.00;;;;;;5071961;28;19928;-59
2022/03/21 13:42:27;;;;;;;;;;;14.80;96.70;;;;;;5070662;28;20035;-59
2022/03/21 13:44:57;;;;;;;;;;;14.30;96.80;;;;;;5071953;28;19928;-59
2022/03/21 13:47:25;;;;;;;;;;;14.80;96.60;;;;;;5076718;28;20174;-59
2022/03/21 13:49:54;;;;;;;;;;;14.70;97.20;;;;;;5075179;28;20407;-58
2022/03/21 13:52:41;;;;;;;;;;;14.90;98.10;;;;;;5057002;28;19957;-58
2022/03/21 13:55:09;;;;;;;;;;;15.00;98.20;;;;;;5076534;28;20334;-59
2022/03/21 13:57:43;;;;;;;;;;;14.80;97.30;;;;;;5075871;28;19931;-59
2022/03/21 14:00:10;;;;;;;;;;;14.70;97.80;;;;;;5076093;28;19939;-58
2022/03/21 14:02:41;;;;;;;;;;;14.80;97.90;;;;;;5074143;28;20342;-59
2022/03/21 14:05:13;;;;;;;;;;;15.60;97.10;;;;;;5068275;28;19928;-58
2022/03/21 14:07:38;;;;;;;;;;;14.80;96.30;;;;;;5075614;28;19959;-59
2022/03/21 14:10:13;;;;;;;;;;;15.00;97.00;;;;;;5077097;28;19971;-58
2022/03/21 14:12:42;;;;;;;;;;;15.00;98.00;;;;;;5075958;28;19943;-59
2022/03/21 14:15:09;;;;;;;;;;;14.90;98.20;;;;;;5074692;28;19928;-58
2022/03/21 14:17:35;;;;;;;;;;;15.10;98.90;;;;;;5075487;28;19924;-58
2022/03/21 14:20:01;;;;;;;;;;;15.70;98.30;;;;;;5073953;28;19942;-59
2022/03/21 14:22:26;;;;;;;;;;;15.20;97.10;;;;;;5075138;28;20498;-59
2022/03/21 14:24:52;;;;;;;;;;;15.00;98.20;;;;;;5075174;28;19937;-59
2022/03/21 14:27:18;;;;;;;;;;;16.30;98.60;;;;;;5075275;28;19928;-59
2022/03/21 14:29:43;;;;;;;;;;;14.90;97.00;;;;;;5074445;28;19935;-59
2022/03/21 14:32:09;;;;;;;;;;;14.90;97.90;;;;;;5073659;28;19928;-59
2022/03/21 14:34:35;;;;;;;;;;;14.90;98.00;;;;;;5074451;28;19928;-59
2022/03/21 14:37:00;;;;;;;;;;;14.80;98.10;;;;;;5074480;28;19935;-58
2022/03/21 14:39:26;;;;;;;;;;;15.80;97.70;;;;;;5089341;28;19935;-59
2022/03/21 14:41:52;;;;;;;;;;;14.80;98.10;;;;;;5074273;28;20194;-59
2022/03/21 14:44:18;;;;;;;;;;;15.60;98.50;;;;;;5089392;28;19932;-59
2022/03/21 14:46:44;;;;;;;;;;;14.80;98.00;;;;;;5074774;28;19947;-59
2022/03/21 14:49:10;;;;;;;;;;;14.90;96.90;;;;;;5073139;28;19932;-59
2022/03/21 14:51:37;;;;;;;;;;;14.60;98.00;;;;;;5074490;28;19982;-59
2022/03/21 14:54:04;;;;;;;;;;;14.70;98.30;;;;;;5074204;28;19935;-60
2022/03/21 14:56:32;;;;;;;;;;;14.80;97.70;;;;;;5074155;28;19932;-59
2022/03/21 14:58:58;;;;;;;;;;;14.70;97.50;;;;;;5073705;28;20026;-59
2022/03/21 15:01:24;;;;;;;;;;;14.60;97.40;;;;;;5074529;28;19932;-59
2022/03/21 15:03:50;;;;;;;;;;;14.60;97.80;;;;;;5074643;28;19932;-59